createdAt,value
2018-06-10T16:14:29.975Z,99.99
2018-06-10T16:15:28.618Z,99.99
2018-06-10T16:16:28.489Z,87.26
2018-06-10T16:17:28.492Z,88.82
2018-06-10T16:18:28.426Z,99.99
2018-06-10T16:19:27.935Z,96.74
2018-06-10T16:20:28.888Z,99.99
2018-06-10T16:21:28.912Z,99.99
2018-06-10T16:22:29.168Z,79.33
2018-06-10T16:24:28.460Z,76.75
2018-06-10T16:25:28.259Z,73.79
2018-06-10T16:26:28.691Z,75.64
2018-06-10T16:27:28.742Z,78.11
2018-06-10T16:28:28.646Z,73.73
2018-06-10T16:29:29.712Z,72.86
2018-06-10T16:30:28.646Z,74.61
2018-06-10T16:31:27.731Z,74.99
2018-06-10T16:32:28.115Z,77.72
2018-06-10T16:33:28.596Z,74.22
2018-06-10T16:34:28.578Z,70.42
2018-06-10T16:35:28.113Z,72.17
2018-06-10T16:36:28.000Z,73.86
2018-06-10T16:37:27.999Z,72.27
2018-06-10T16:38:27.959Z,84.63
2018-06-10T16:39:28.417Z,86.03
2018-06-10T16:40:28.452Z,98.58
2018-06-10T16:41:27.829Z,90.27
2018-06-10T16:42:27.843Z,79.66
2018-06-10T16:43:27.831Z,81.12
2018-06-10T16:44:28.711Z,75.87
2018-06-10T16:45:27.458Z,85.31
2018-06-10T16:46:28.283Z,74.28
2018-06-10T16:47:27.751Z,82.10
2018-06-10T16:48:27.722Z,73.73
2018-06-10T16:49:28.704Z,77.43
2018-06-10T16:50:28.093Z,73.93
2018-06-10T16:51:28.181Z,75.19
2018-06-10T16:52:28.216Z,76.84
2018-06-10T16:53:28.212Z,89.20
2018-06-10T16:54:28.100Z,75.48
2018-06-10T16:55:27.571Z,76.51
2018-06-10T16:56:27.555Z,75.45
2018-06-10T16:57:27.455Z,89.35
2018-06-10T16:58:27.454Z,96.15
2018-06-10T16:59:27.479Z,81.34
2018-06-10T17:00:27.468Z,80.66
2018-06-10T17:01:27.505Z,79.88
2018-06-10T17:02:27.908Z,81.30
2018-06-10T17:03:27.390Z,83.88
2018-06-10T17:04:26.949Z,82.28
2018-06-10T17:05:27.342Z,82.57
2018-06-10T17:06:27.253Z,95.00
2018-06-10T17:07:27.310Z,86.55
2018-06-10T17:08:28.203Z,89.32
2018-06-10T17:09:27.746Z,92.72
2018-06-10T17:10:28.280Z,89.32
2018-06-10T17:11:27.192Z,88.55
2018-06-10T17:12:27.178Z,90.68
2018-06-10T17:13:27.142Z,90.00
2018-06-10T17:14:27.627Z,88.55
2018-06-10T17:15:27.592Z,84.71
2018-06-10T17:16:27.578Z,88.79
2018-06-10T17:17:27.494Z,87.09
2018-06-10T17:18:26.632Z,90.73
2018-06-10T17:19:26.996Z,99.17
2018-06-10T17:20:26.903Z,99.99
2018-06-10T17:21:27.537Z,99.99
2018-06-10T17:22:26.940Z,99.99
2018-06-10T17:23:26.910Z,99.99
2018-06-10T17:24:26.919Z,99.99
2018-06-10T17:25:26.797Z,99.99
2018-06-10T17:26:26.783Z,99.99
2018-06-10T17:27:26.828Z,99.99
2018-06-10T17:28:26.851Z,99.99
2018-06-10T17:29:26.734Z,99.99
2018-06-10T17:30:27.248Z,99.99
2018-06-10T17:31:26.668Z,99.99
2018-06-10T17:32:26.314Z,99.99
2018-06-10T17:33:27.190Z,99.99
2018-06-10T17:34:27.071Z,99.99
2018-06-10T17:35:26.576Z,99.99
2018-06-10T17:36:26.595Z,99.99
2018-06-10T17:37:26.569Z,99.99
2018-06-10T17:38:26.549Z,99.99
2018-06-10T17:39:26.985Z,99.99
2018-06-10T17:40:26.507Z,99.99
2018-06-10T17:41:26.439Z,99.99
2018-06-10T17:42:26.404Z,99.99
2018-06-10T17:43:26.381Z,99.99
2018-06-10T17:44:27.406Z,99.99
2018-06-10T17:45:26.366Z,99.99
2018-06-10T17:46:26.818Z,99.99
2018-06-10T17:47:26.332Z,99.99
2018-06-10T17:48:25.910Z,99.99
2018-06-10T17:49:26.689Z,99.99
2018-06-10T17:50:26.142Z,99.99
2018-06-10T17:51:26.689Z,99.99
2018-06-10T17:52:26.649Z,99.99
2018-06-10T17:53:26.070Z,99.99
2018-06-10T17:54:26.105Z,99.99
2018-06-10T17:55:26.661Z,99.99
2018-06-10T17:56:26.070Z,99.99
2018-06-10T17:57:26.501Z,99.99
2018-06-10T17:58:25.929Z,99.99
2018-06-10T17:59:26.734Z,99.99
2018-06-10T18:00:25.947Z,99.99
2018-06-10T18:01:25.887Z,99.99
2018-06-10T18:02:25.900Z,99.99
2018-06-10T18:03:25.464Z,99.99
2018-06-10T18:04:26.336Z,99.99
2018-06-10T18:05:26.219Z,99.99
2018-06-10T18:06:25.853Z,95.74
2018-06-10T18:07:25.759Z,99.99
2018-06-10T18:08:26.252Z,99.99
2018-06-10T18:09:26.177Z,93.76
2018-06-10T18:10:25.707Z,99.99
2018-06-10T18:11:25.640Z,99.99
2018-06-10T18:12:25.696Z,99.99
2018-06-10T18:13:25.618Z,99.99
2018-06-10T18:14:25.608Z,99.99
2018-06-10T18:15:25.544Z,99.99
2018-06-10T18:16:25.642Z,99.99
2018-06-10T18:17:25.084Z,99.99
2018-06-10T18:18:25.650Z,99.99
2018-06-10T18:19:25.430Z,99.99
2018-06-10T18:20:25.947Z,99.99
2018-06-10T18:21:25.272Z,99.99
2018-06-10T18:22:25.326Z,99.99
2018-06-10T18:23:25.429Z,99.99
2018-06-10T18:24:25.341Z,99.99
2018-06-10T18:25:25.231Z,99.99
2018-06-10T18:26:25.261Z,99.99
2018-06-10T18:27:25.719Z,98.05
2018-06-10T18:28:25.165Z,99.99
2018-06-10T18:29:25.515Z,99.99
2018-06-10T18:30:26.659Z,99.93
2018-06-10T18:31:24.676Z,94.63
2018-06-10T18:32:25.187Z,92.32
2018-06-10T18:33:25.572Z,89.95
2018-06-10T18:34:25.538Z,84.94
2018-06-10T18:35:25.006Z,87.06
2018-06-10T18:36:25.243Z,78.06
2018-06-10T18:37:25.280Z,76.80
2018-06-10T18:38:24.859Z,76.51
2018-06-10T18:39:25.075Z,76.51
2018-06-10T18:40:25.036Z,76.23
2018-06-10T18:41:24.757Z,76.51
2018-06-10T18:42:24.797Z,71.60
2018-06-10T18:43:24.739Z,70.15
2018-06-10T18:44:24.780Z,69.19
2018-06-10T18:45:24.788Z,66.85
2018-06-10T18:46:25.241Z,59.33
2018-06-10T18:47:24.697Z,59.81
2018-06-10T18:48:24.649Z,61.74
2018-06-10T18:49:24.214Z,68.90
2018-06-10T18:50:24.575Z,70.83
2018-06-10T18:51:24.514Z,76.32
2018-06-10T18:52:24.275Z,78.25
2018-06-10T18:53:23.991Z,70.54
2018-06-10T18:54:24.051Z,72.56
2018-06-10T18:55:24.908Z,70.35
2018-06-10T18:56:24.394Z,60.42
2018-06-10T18:57:24.028Z,58.20
2018-06-10T18:58:24.889Z,63.60
2018-06-10T18:59:24.924Z,57.05
2018-06-10T19:00:24.388Z,56.57
2018-06-10T19:01:24.471Z,50.88
2018-06-10T19:02:23.793Z,55.22
2018-06-10T19:03:24.230Z,62.73
2018-06-10T19:04:24.290Z,64.05
2018-06-10T19:05:24.385Z,58.20
2018-06-10T19:06:24.057Z,55.60
2018-06-10T19:07:24.222Z,55.31
2018-06-10T19:08:24.154Z,50.21
2018-06-10T19:09:23.996Z,41.63
2018-06-10T19:10:24.071Z,42.88
2018-06-10T19:11:24.017Z,47.77
2018-06-10T19:12:24.487Z,45.36
2018-06-10T19:13:23.860Z,41.03
2018-06-10T19:14:24.375Z,39.78
2018-06-10T19:15:23.827Z,40.26
2018-06-10T19:16:23.321Z,41.89
2018-06-10T19:17:24.043Z,47.77
2018-06-10T19:18:24.004Z,48.44
2018-06-10T19:19:25.656Z,57.21
2018-06-10T19:20:23.307Z,45.84
2018-06-10T19:21:23.315Z,68.19
2018-06-10T19:22:23.160Z,75.03
2018-06-10T19:23:23.203Z,75.45
2018-06-10T19:24:23.066Z,77.00
2018-06-10T19:25:23.168Z,79.31
2018-06-10T19:26:23.044Z,82.01
2018-06-10T19:27:23.086Z,94.06
2018-06-10T19:28:23.039Z,98.87
2018-06-10T19:29:22.944Z,99.99
2018-06-10T19:30:22.937Z,99.99
2018-06-10T19:31:22.854Z,99.99
2018-06-10T19:32:22.819Z,99.99
2018-06-10T19:33:22.832Z,95.45
2018-06-10T19:34:22.756Z,94.68
2018-06-10T19:35:22.726Z,98.73
2018-06-10T19:36:22.695Z,98.54
2018-06-10T19:37:22.743Z,99.99
2018-06-10T19:38:22.665Z,99.99
2018-06-10T19:39:22.663Z,90.53
2018-06-10T19:40:22.590Z,93.19
2018-06-10T19:41:22.621Z,98.39
2018-06-10T19:42:22.509Z,97.42
2018-06-10T19:43:22.492Z,99.07
2018-06-10T19:44:22.451Z,92.32
2018-06-10T19:45:22.425Z,88.27
2018-06-10T19:46:22.417Z,91.45
2018-06-10T19:47:22.364Z,92.22
2018-06-10T19:48:22.343Z,92.56
2018-06-10T19:49:22.310Z,89.09
2018-06-10T19:50:22.277Z,92.37
2018-06-10T19:51:22.266Z,92.37
2018-06-10T19:52:22.217Z,91.79
2018-06-10T19:53:22.191Z,92.56
2018-06-10T19:54:22.167Z,84.47
2018-06-10T19:55:22.133Z,80.04
2018-06-10T19:56:22.112Z,89.00
2018-06-10T19:57:22.070Z,83.89
2018-06-10T19:58:22.031Z,75.96
2018-06-10T19:59:22.010Z,67.10
2018-06-10T20:00:21.974Z,61.61
2018-06-10T20:01:21.979Z,60.07
2018-06-10T20:02:21.904Z,56.99
2018-06-10T20:03:21.889Z,49.77
2018-06-10T20:04:21.892Z,44.57
2018-06-10T20:05:21.832Z,43.01
2018-06-10T20:06:21.787Z,40.31
2018-06-10T20:07:21.779Z,38.20
2018-06-10T20:08:21.745Z,37.04
2018-06-10T20:09:21.723Z,37.81
2018-06-10T20:10:21.696Z,36.47
2018-06-10T20:11:21.661Z,32.14
2018-06-10T20:12:21.680Z,32.14
2018-06-10T20:13:21.585Z,32.71
2018-06-10T20:14:21.563Z,33.00
2018-06-10T20:15:21.526Z,30.11
2018-06-10T20:16:21.494Z,32.33
2018-06-10T20:17:21.476Z,32.90
2018-06-10T20:18:21.434Z,34.06
2018-06-10T20:19:21.444Z,34.83
2018-06-10T20:20:21.396Z,33.87
2018-06-10T20:21:21.365Z,38.95
2018-06-10T20:22:21.319Z,36.35
2018-06-10T20:23:21.277Z,36.25
2018-06-10T20:24:21.360Z,40.49
2018-06-10T20:25:21.212Z,37.12
2018-06-10T20:26:21.181Z,45.99
2018-06-10T20:27:21.185Z,46.45
2018-06-10T20:28:21.193Z,47.44
2018-06-10T20:29:21.136Z,38.47
2018-06-10T20:30:21.114Z,45.59
2018-06-10T20:31:21.055Z,43.08
2018-06-10T20:32:21.027Z,45.61
2018-06-10T20:33:21.023Z,53.02
2018-06-10T20:34:20.972Z,54.05
2018-06-10T20:35:20.896Z,55.01
2018-06-10T20:36:20.904Z,55.20
2018-06-10T20:37:20.856Z,51.84
2018-06-10T20:38:20.828Z,47.22
2018-06-10T20:39:20.787Z,32.41
2018-06-10T20:40:20.758Z,30.77
2018-06-10T20:41:20.782Z,30.68
2018-06-10T20:42:20.726Z,24.33
2018-06-10T20:43:20.677Z,17.60
2018-06-10T20:44:20.623Z,17.31
2018-06-10T20:45:20.602Z,22.22
2018-06-10T20:46:20.582Z,24.43
2018-06-10T20:47:20.556Z,21.44
2018-06-10T20:48:20.531Z,14.71
2018-06-10T20:49:20.532Z,9.13
2018-06-10T20:50:20.471Z,7.21
2018-06-10T20:51:20.454Z,11.35
2018-06-10T20:52:20.409Z,6.82
2018-06-10T20:53:20.350Z,8.75
2018-06-10T20:54:20.369Z,10.09
2018-06-10T20:55:20.311Z,3.17
2018-06-10T20:56:20.340Z,0.00
2018-06-10T20:57:20.250Z,0.00
2018-06-10T20:58:20.233Z,0.00
2018-06-10T20:59:20.157Z,1.82
2018-06-10T21:00:20.144Z,4.52
2018-06-10T21:01:20.115Z,5.29
2018-06-10T21:02:20.115Z,6.54
2018-06-10T21:03:20.122Z,0.38
2018-06-10T21:04:20.026Z,0.00
2018-06-10T21:05:20.053Z,0.00
2018-06-10T21:06:19.950Z,0.00
2018-06-10T21:07:19.941Z,0.00
2018-06-10T21:08:19.967Z,0.00
2018-06-10T21:09:19.902Z,0.00
2018-06-10T21:10:19.832Z,0.00
2018-06-10T21:11:19.804Z,0.00
2018-06-10T21:12:19.791Z,0.86
2018-06-10T21:13:19.785Z,0.09
2018-06-10T21:14:19.758Z,0.00
2018-06-10T21:15:19.679Z,0.00
2018-06-10T21:16:19.650Z,9.41
2018-06-10T21:17:19.648Z,20.27
2018-06-10T21:18:19.611Z,25.83
2018-06-10T21:19:19.549Z,16.71
2018-06-10T21:20:19.623Z,21.32
2018-06-10T21:21:19.553Z,12.00
2018-06-10T21:22:19.476Z,3.45
2018-06-10T21:23:19.416Z,6.15
2018-06-10T21:24:19.372Z,8.93
2018-06-10T21:25:19.370Z,0.00
2018-06-10T21:26:19.365Z,0.00
2018-06-10T21:27:19.289Z,5.18
2018-06-10T21:28:19.287Z,7.01
2018-06-10T21:29:19.233Z,4.51
2018-06-10T21:30:19.194Z,16.71
2018-06-10T21:31:19.313Z,19.77
2018-06-10T21:32:19.166Z,16.50
2018-06-10T21:33:19.144Z,10.27
2018-06-10T21:34:19.069Z,0.00
2018-06-10T21:35:19.030Z,0.00
2018-06-10T21:36:19.020Z,2.11
2018-06-10T21:37:18.988Z,2.01
2018-06-10T21:38:18.976Z,0.00
2018-06-10T21:39:18.979Z,0.00
2018-06-10T21:40:18.894Z,0.00
2018-06-10T21:41:18.912Z,0.00
2018-06-10T21:42:18.896Z,0.00
2018-06-10T21:43:18.849Z,0.00
2018-06-10T21:44:18.834Z,0.00
2018-06-10T21:45:18.745Z,0.00
2018-06-10T21:46:18.793Z,0.00
2018-06-10T21:47:18.712Z,0.00
2018-06-10T21:48:18.650Z,0.00
2018-06-10T21:49:18.613Z,0.00
2018-06-10T21:50:18.587Z,0.00
2018-06-10T21:51:18.542Z,0.00
2018-06-10T21:52:18.533Z,0.00
2018-06-10T21:53:18.471Z,0.00
2018-06-10T21:54:18.436Z,0.00
2018-06-10T21:55:18.416Z,0.00
2018-06-10T21:56:18.385Z,0.00
2018-06-10T21:57:18.392Z,0.00
2018-06-10T21:58:18.317Z,0.00
2018-06-10T21:59:18.294Z,0.00
2018-06-10T22:00:18.296Z,0.00
2018-06-10T22:01:18.230Z,0.00
2018-06-10T22:02:18.181Z,0.00
2018-06-10T22:03:18.228Z,0.00
2018-06-10T22:04:18.139Z,0.00
2018-06-10T22:05:18.127Z,0.00
2018-06-10T22:06:18.199Z,0.00
2018-06-10T22:07:18.009Z,0.00
2018-06-10T22:08:18.009Z,0.00
2018-06-10T22:09:17.949Z,0.00
2018-06-10T22:10:17.941Z,0.00
2018-06-10T22:11:18.009Z,0.00
2018-06-10T22:12:17.883Z,0.00
2018-06-10T22:13:17.843Z,0.00
2018-06-10T22:14:17.831Z,0.00
2018-06-10T22:15:17.782Z,0.00
2018-06-10T22:16:17.734Z,0.00
2018-06-10T22:17:17.695Z,0.00
2018-06-10T22:18:17.741Z,0.00
2018-06-10T22:19:17.691Z,0.00
2018-06-10T22:20:17.609Z,0.00
2018-06-10T22:21:17.571Z,0.00
2018-06-10T22:22:17.583Z,0.00
2018-06-10T22:23:17.529Z,0.00
2018-06-10T22:24:17.474Z,0.00
2018-06-10T22:25:17.458Z,0.00
2018-06-10T22:26:17.512Z,0.00
2018-06-10T22:27:17.471Z,0.00
2018-06-10T22:28:17.480Z,0.00
2018-06-10T22:29:17.333Z,0.00
2018-06-10T22:30:17.282Z,0.00
2018-06-10T22:31:17.280Z,0.00
2018-06-10T22:32:17.214Z,0.00
2018-06-10T22:33:17.204Z,0.00
2018-06-10T22:34:17.155Z,0.00
2018-06-10T22:35:17.132Z,0.00
2018-06-10T22:36:17.078Z,0.00
2018-06-10T22:37:17.088Z,0.00
2018-06-10T22:38:17.028Z,0.00
2018-06-10T22:39:17.003Z,0.00
2018-06-10T22:40:16.945Z,0.00
2018-06-10T22:41:16.908Z,0.00
2018-06-10T22:42:16.921Z,0.00
2018-06-10T22:43:16.839Z,0.00
2018-06-10T22:44:16.814Z,0.00
2018-06-10T22:45:16.797Z,0.00
2018-06-10T22:46:16.772Z,0.00
2018-06-10T22:47:16.725Z,0.00
2018-06-10T22:48:16.678Z,0.00
2018-06-10T22:49:16.691Z,0.00
2018-06-10T22:50:16.660Z,0.00
2018-06-10T22:51:16.738Z,0.00
2018-06-10T22:52:16.551Z,0.00
2018-06-10T22:53:16.572Z,0.00
2018-06-10T22:54:16.470Z,0.00
2018-06-10T22:55:16.487Z,0.00
2018-06-10T22:56:16.427Z,0.00
2018-06-10T22:57:16.399Z,0.00
2018-06-10T22:58:16.380Z,0.00
2018-06-10T22:59:16.369Z,0.00
2018-06-10T23:00:16.295Z,0.00
2018-06-10T23:01:16.307Z,0.00
2018-06-10T23:02:16.238Z,0.00
2018-06-10T23:03:16.206Z,0.00
2018-06-10T23:04:16.219Z,0.00
2018-06-10T23:05:16.182Z,0.00
2018-06-10T23:06:16.157Z,0.00
2018-06-10T23:07:16.140Z,0.00
2018-06-10T23:08:16.052Z,0.00
2018-06-10T23:09:16.002Z,0.00
2018-06-10T23:10:16.004Z,0.00
2018-06-10T23:11:15.978Z,0.00
2018-06-10T23:12:15.891Z,0.00
2018-06-10T23:13:15.853Z,0.00
2018-06-10T23:14:15.820Z,0.00
2018-06-10T23:15:15.814Z,0.00
2018-06-10T23:16:15.765Z,0.00
2018-06-10T23:17:15.746Z,0.00
2018-06-10T23:18:15.692Z,0.00
2018-06-10T23:19:15.661Z,0.00
2018-06-10T23:20:15.638Z,0.00
2018-06-10T23:21:15.635Z,0.00
2018-06-10T23:22:15.560Z,0.00
2018-06-10T23:23:15.597Z,0.00
2018-06-10T23:24:15.551Z,0.00
2018-06-10T23:25:15.467Z,0.00
2018-06-10T23:26:15.454Z,0.00
2018-06-10T23:27:15.436Z,0.00
2018-06-10T23:28:15.380Z,0.00
2018-06-10T23:29:15.384Z,0.00
2018-06-10T23:30:15.304Z,0.00
2018-06-10T23:31:15.271Z,0.00
2018-06-10T23:32:15.292Z,0.00
2018-06-10T23:33:15.215Z,0.00
2018-06-10T23:34:15.237Z,0.00
2018-06-10T23:35:15.185Z,0.00
2018-06-10T23:36:15.167Z,0.00
2018-06-10T23:37:15.076Z,0.00
2018-06-10T23:38:15.066Z,0.00
2018-06-10T23:39:15.014Z,0.00
2018-06-10T23:40:14.970Z,0.00
2018-06-10T23:41:14.966Z,0.00
2018-06-10T23:42:15.067Z,0.00
2018-06-10T23:43:14.977Z,0.00
2018-06-10T23:44:14.874Z,0.00
2018-06-10T23:45:14.823Z,0.00
2018-06-10T23:46:14.797Z,0.00
2018-06-10T23:47:14.744Z,0.00
2018-06-10T23:48:14.832Z,0.00
2018-06-10T23:49:14.705Z,0.00
2018-06-10T23:50:14.648Z,0.00
2018-06-10T23:51:14.616Z,0.00
2018-06-10T23:52:14.622Z,0.00
2018-06-10T23:53:14.577Z,0.00
2018-06-10T23:54:14.560Z,0.00
2018-06-10T23:55:14.491Z,0.00
2018-06-10T23:56:14.481Z,0.00
2018-06-10T23:57:14.426Z,0.00
2018-06-10T23:58:14.400Z,0.00
2018-06-10T23:59:14.374Z,0.00
